sensor_id;sensor_type;location;lat;lon;timestamp;temperature;humidity
74416;SHT31;62850;42.428;25.618;2024-01-30T00:01:04;1.80;57.12
74416;SHT31;62850;42.428;25.618;2024-01-30T00:03:30;1.71;57.53
74416;SHT31;62850;42.428;25.618;2024-01-30T00:05:55;1.73;57.85
74416;SHT31;62850;42.428;25.618;2024-01-30T00:08:21;1.77;58.34
74416;SHT31;62850;42.428;25.618;2024-01-30T00:10:46;1.74;58.34
74416;SHT31;62850;42.428;25.618;2024-01-30T00:13:12;1.70;59.02
74416;SHT31;62850;42.428;25.618;2024-01-30T00:15:39;1.62;58.96
74416;SHT31;62850;42.428;25.618;2024-01-30T00:18:04;1.68;59.54
74416;SHT31;62850;42.428;25.618;2024-01-30T00:20:30;1.67;59.61
74416;SHT31;62850;42.428;25.618;2024-01-30T00:22:55;1.59;59.82
74416;SHT31;62850;42.428;25.618;2024-01-30T00:25:20;1.57;60.19
74416;SHT31;62850;42.428;25.618;2024-01-30T00:27:46;1.52;60.31
74416;SHT31;62850;42.428;25.618;2024-01-30T00:30:12;1.57;60.19
74416;SHT31;62850;42.428;25.618;2024-01-30T00:32:37;1.57;60.36
74416;SHT31;62850;42.428;25.618;2024-01-30T00:35:03;1.54;60.56
74416;SHT31;62850;42.428;25.618;2024-01-30T00:37:28;1.56;61.02
74416;SHT31;62850;42.428;25.618;2024-01-30T00:39:54;1.50;60.74
74416;SHT31;62850;42.428;25.618;2024-01-30T00:42:19;1.53;60.71
74416;SHT31;62850;42.428;25.618;2024-01-30T00:44:45;1.53;60.62
74416;SHT31;62850;42.428;25.618;2024-01-30T00:47:10;1.49;60.78
74416;SHT31;62850;42.428;25.618;2024-01-30T00:49:36;1.53;60.68
74416;SHT31;62850;42.428;25.618;2024-01-30T00:52:01;1.59;60.76
74416;SHT31;62850;42.428;25.618;2024-01-30T00:54:27;1.57;60.56
74416;SHT31;62850;42.428;25.618;2024-01-30T00:56:52;1.53;60.65
74416;SHT31;62850;42.428;25.618;2024-01-30T00:59:18;1.50;60.96
74416;SHT31;62850;42.428;25.618;2024-01-30T01:01:43;1.59;61.04
74416;SHT31;62850;42.428;25.618;2024-01-30T01:04:08;1.57;60.65
74416;SHT31;62850;42.428;25.618;2024-01-30T01:06:34;1.57;60.58
74416;SHT31;62850;42.428;25.618;2024-01-30T01:08:59;1.57;60.49
74416;SHT31;62850;42.428;25.618;2024-01-30T01:11:25;1.53;60.56
74416;SHT31;62850;42.428;25.618;2024-01-30T01:13:50;1.56;60.83
74416;SHT31;62850;42.428;25.618;2024-01-30T01:16:15;1.53;60.87
74416;SHT31;62850;42.428;25.618;2024-01-30T01:18:41;1.56;60.74
74416;SHT31;62850;42.428;25.618;2024-01-30T01:21:06;1.59;60.26
74416;SHT31;62850;42.428;25.618;2024-01-30T01:23:32;1.59;60.30
74416;SHT31;62850;42.428;25.618;2024-01-30T01:25:57;1.53;60.46
74416;SHT31;62850;42.428;25.618;2024-01-30T01:28:24;1.57;60.50
74416;SHT31;62850;42.428;25.618;2024-01-30T01:30:50;1.56;60.10
74416;SHT31;62850;42.428;25.618;2024-01-30T01:33:16;1.59;59.82
74416;SHT31;62850;42.428;25.618;2024-01-30T01:35:42;1.66;60.01
74416;SHT31;62850;42.428;25.618;2024-01-30T01:38:08;1.60;59.74
74416;SHT31;62850;42.428;25.618;2024-01-30T01:40:33;1.56;59.93
74416;SHT31;62850;42.428;25.618;2024-01-30T01:43:02;1.56;60.06
74416;SHT31;62850;42.428;25.618;2024-01-30T01:45:28;1.54;59.97
74416;SHT31;62850;42.428;25.618;2024-01-30T01:47:53;1.57;60.16
74416;SHT31;62850;42.428;25.618;2024-01-30T01:50:20;1.62;60.25
74416;SHT31;62850;42.428;25.618;2024-01-30T01:52:50;1.62;60.11
74416;SHT31;62850;42.428;25.618;2024-01-30T01:55:16;1.67;59.44
74416;SHT31;62850;42.428;25.618;2024-01-30T01:57:44;1.67;59.44
74416;SHT31;62850;42.428;25.618;2024-01-30T02:00:10;1.67;59.75
74416;SHT31;62850;42.428;25.618;2024-01-30T02:02:36;1.64;59.85
74416;SHT31;62850;42.428;25.618;2024-01-30T02:05:02;1.66;60.02
74416;SHT31;62850;42.428;25.618;2024-01-30T02:07:29;1.68;59.94
74416;SHT31;62850;42.428;25.618;2024-01-30T02:09:55;1.66;60.37
74416;SHT31;62850;42.428;25.618;2024-01-30T02:12:20;1.70;60.58
74416;SHT31;62850;42.428;25.618;2024-01-30T02:14:47;1.67;60.82
74416;SHT31;62850;42.428;25.618;2024-01-30T02:17:13;1.70;60.87
74416;SHT31;62850;42.428;25.618;2024-01-30T02:19:39;1.70;61.19
74416;SHT31;62850;42.428;25.618;2024-01-30T02:22:05;1.63;61.38
74416;SHT31;62850;42.428;25.618;2024-01-30T02:24:31;1.59;61.74
74416;SHT31;62850;42.428;25.618;2024-01-30T02:26:56;1.60;61.94
74416;SHT31;62850;42.428;25.618;2024-01-30T02:29:22;1.53;62.08
74416;SHT31;62850;42.428;25.618;2024-01-30T02:31:47;1.53;62.31
74416;SHT31;62850;42.428;25.618;2024-01-30T02:34:13;1.59;62.16
74416;SHT31;62850;42.428;25.618;2024-01-30T02:36:42;1.53;62.43
74416;SHT31;62850;42.428;25.618;2024-01-30T02:39:07;1.52;62.33
74416;SHT31;62850;42.428;25.618;2024-01-30T02:41:33;1.54;62.49
74416;SHT31;62850;42.428;25.618;2024-01-30T02:43:58;1.54;62.28
74416;SHT31;62850;42.428;25.618;2024-01-30T02:46:24;1.54;62.49
74416;SHT31;62850;42.428;25.618;2024-01-30T02:48:49;1.57;62.60
74416;SHT31;62850;42.428;25.618;2024-01-30T02:51:15;1.52;62.78
74416;SHT31;62850;42.428;25.618;2024-01-30T02:53:40;1.54;63.01
74416;SHT31;62850;42.428;25.618;2024-01-30T02:56:06;1.54;62.73
74416;SHT31;62850;42.428;25.618;2024-01-30T02:58:35;1.57;62.63
74416;SHT31;62850;42.428;25.618;2024-01-30T03:01:00;1.57;62.77
74416;SHT31;62850;42.428;25.618;2024-01-30T03:03:26;1.63;62.78
74416;SHT31;62850;42.428;25.618;2024-01-30T03:05:51;1.63;62.41
74416;SHT31;62850;42.428;25.618;2024-01-30T03:08:16;1.67;62.30
74416;SHT31;62850;42.428;25.618;2024-01-30T03:10:42;1.67;61.97
74416;SHT31;62850;42.428;25.618;2024-01-30T03:13:07;1.68;61.87
74416;SHT31;62850;42.428;25.618;2024-01-30T03:15:33;1.76;61.68
74416;SHT31;62850;42.428;25.618;2024-01-30T03:17:58;1.76;61.68
74416;SHT31;62850;42.428;25.618;2024-01-30T03:20:23;1.76;61.41
74416;SHT31;62850;42.428;25.618;2024-01-30T03:22:49;1.78;61.38
74416;SHT31;62850;42.428;25.618;2024-01-30T03:25:15;1.81;61.09
74416;SHT31;62850;42.428;25.618;2024-01-30T03:27:40;1.84;61.05
74416;SHT31;62850;42.428;25.618;2024-01-30T03:30:06;1.95;60.92
74416;SHT31;62850;42.428;25.618;2024-01-30T03:32:32;1.94;60.74
74416;SHT31;62850;42.428;25.618;2024-01-30T03:34:57;2.01;60.67
74416;SHT31;62850;42.428;25.618;2024-01-30T03:37:23;1.88;60.93
74416;SHT31;62850;42.428;25.618;2024-01-30T03:39:49;1.81;61.20
74416;SHT31;62850;42.428;25.618;2024-01-30T03:42:15;1.91;61.16
74416;SHT31;62850;42.428;25.618;2024-01-30T03:44:40;1.81;61.55
74416;SHT31;62850;42.428;25.618;2024-01-30T03:47:05;1.80;61.76
74416;SHT31;62850;42.428;25.618;2024-01-30T03:49:31;1.83;62.11
74416;SHT31;62850;42.428;25.618;2024-01-30T03:51:56;1.88;61.94
74416;SHT31;62850;42.428;25.618;2024-01-30T03:54:22;1.83;62.35
74416;SHT31;62850;42.428;25.618;2024-01-30T03:56:47;1.76;62.47
74416;SHT31;62850;42.428;25.618;2024-01-30T03:59:12;1.71;62.76
74416;SHT31;62850;42.428;25.618;2024-01-30T04:01:38;1.76;63.01
74416;SHT31;62850;42.428;25.618;2024-01-30T04:04:03;1.78;62.74
74416;SHT31;62850;42.428;25.618;2024-01-30T04:06:29;1.77;62.94
74416;SHT31;62850;42.428;25.618;2024-01-30T04:08:54;1.74;63.43
74416;SHT31;62850;42.428;25.618;2024-01-30T04:11:20;1.77;63.33
74416;SHT31;62850;42.428;25.618;2024-01-30T04:13:45;1.81;63.46
74416;SHT31;62850;42.428;25.618;2024-01-30T04:16:20;1.73;63.71
74416;SHT31;62850;42.428;25.618;2024-01-30T04:18:47;1.88;63.98
74416;SHT31;62850;42.428;25.618;2024-01-30T04:21:12;1.83;63.57
74416;SHT31;62850;42.428;25.618;2024-01-30T04:23:39;1.77;65.14
74416;SHT31;62850;42.428;25.618;2024-01-30T04:26:05;1.74;64.13
74416;SHT31;62850;42.428;25.618;2024-01-30T04:28:30;1.77;64.00
74416;SHT31;62850;42.428;25.618;2024-01-30T04:30:56;1.80;64.15
74416;SHT31;62850;42.428;25.618;2024-01-30T04:33:21;1.77;63.92
74416;SHT31;62850;42.428;25.618;2024-01-30T04:35:47;1.74;64.27
74416;SHT31;62850;42.428;25.618;2024-01-30T04:38:12;1.74;64.23
74416;SHT31;62850;42.428;25.618;2024-01-30T04:40:38;1.73;64.44
74416;SHT31;62850;42.428;25.618;2024-01-30T04:43:04;1.71;64.46
74416;SHT31;62850;42.428;25.618;2024-01-30T04:45:29;1.60;64.66
74416;SHT31;62850;42.428;25.618;2024-01-30T04:47:55;1.62;64.75
74416;SHT31;62850;42.428;25.618;2024-01-30T04:50:20;1.67;64.75
74416;SHT31;62850;42.428;25.618;2024-01-30T04:52:46;1.67;64.58
74416;SHT31;62850;42.428;25.618;2024-01-30T04:55:11;1.73;64.60
74416;SHT31;62850;42.428;25.618;2024-01-30T04:57:37;1.70;64.58
74416;SHT31;62850;42.428;25.618;2024-01-30T05:00:02;1.70;64.76
74416;SHT31;62850;42.428;25.618;2024-01-30T05:02:28;1.66;64.85
74416;SHT31;62850;42.428;25.618;2024-01-30T05:04:54;1.62;64.92
74416;SHT31;62850;42.428;25.618;2024-01-30T05:07:19;1.68;64.83
74416;SHT31;62850;42.428;25.618;2024-01-30T05:09:45;1.71;64.87
74416;SHT31;62850;42.428;25.618;2024-01-30T05:12:10;1.67;64.90
74416;SHT31;62850;42.428;25.618;2024-01-30T05:14:36;1.66;65.02
74416;SHT31;62850;42.428;25.618;2024-01-30T05:17:01;1.63;65.04
74416;SHT31;62850;42.428;25.618;2024-01-30T05:19:28;1.57;65.38
74416;SHT31;62850;42.428;25.618;2024-01-30T05:21:54;1.62;65.45
74416;SHT31;62850;42.428;25.618;2024-01-30T05:24:19;1.68;65.47
74416;SHT31;62850;42.428;25.618;2024-01-30T05:26:44;1.66;65.25
74416;SHT31;62850;42.428;25.618;2024-01-30T05:29:10;1.60;65.57
74416;SHT31;62850;42.428;25.618;2024-01-30T05:31:35;1.59;65.44
74416;SHT31;62850;42.428;25.618;2024-01-30T05:34:01;1.59;65.37
74416;SHT31;62850;42.428;25.618;2024-01-30T05:36:27;1.60;65.34
74416;SHT31;62850;42.428;25.618;2024-01-30T05:38:52;1.53;65.36
74416;SHT31;62850;42.428;25.618;2024-01-30T05:41:18;1.52;65.51
74416;SHT31;62850;42.428;25.618;2024-01-30T05:43:44;1.59;65.48
74416;SHT31;62850;42.428;25.618;2024-01-30T05:46:09;1.56;65.38
74416;SHT31;62850;42.428;25.618;2024-01-30T05:48:35;1.62;65.24
74416;SHT31;62850;42.428;25.618;2024-01-30T05:51:01;1.59;65.34
74416;SHT31;62850;42.428;25.618;2024-01-30T05:53:27;1.62;65.42
74416;SHT31;62850;42.428;25.618;2024-01-30T05:55:52;1.59;65.04
74416;SHT31;62850;42.428;25.618;2024-01-30T05:58:17;1.68;64.97
74416;SHT31;62850;42.428;25.618;2024-01-30T06:00:43;1.73;64.22
74416;SHT31;62850;42.428;25.618;2024-01-30T06:03:08;1.67;63.91
74416;SHT31;62850;42.428;25.618;2024-01-30T06:05:34;1.73;64.08
74416;SHT31;62850;42.428;25.618;2024-01-30T06:07:59;1.71;64.01
74416;SHT31;62850;42.428;25.618;2024-01-30T06:10:25;1.70;64.12
74416;SHT31;62850;42.428;25.618;2024-01-30T06:12:50;1.64;64.33
74416;SHT31;62850;42.428;25.618;2024-01-30T06:15:16;1.70;64.27
74416;SHT31;62850;42.428;25.618;2024-01-30T06:17:41;1.67;63.74
74416;SHT31;62850;42.428;25.618;2024-01-30T06:20:07;1.70;63.52
74416;SHT31;62850;42.428;25.618;2024-01-30T06:22:32;1.66;63.51
74416;SHT31;62850;42.428;25.618;2024-01-30T06:24:58;1.66;63.29
74416;SHT31;62850;42.428;25.618;2024-01-30T06:27:23;1.71;62.70
74416;SHT31;62850;42.428;25.618;2024-01-30T06:29:49;1.67;62.88
74416;SHT31;62850;42.428;25.618;2024-01-30T06:32:14;1.70;62.71
74416;SHT31;62850;42.428;25.618;2024-01-30T06:34:41;1.74;62.67
74416;SHT31;62850;42.428;25.618;2024-01-30T06:37:06;1.77;62.39
74416;SHT31;62850;42.428;25.618;2024-01-30T06:39:32;1.83;62.04
74416;SHT31;62850;42.428;25.618;2024-01-30T06:41:57;1.81;61.86
74416;SHT31;62850;42.428;25.618;2024-01-30T06:44:22;1.90;61.73
74416;SHT31;62850;42.428;25.618;2024-01-30T06:46:48;1.93;61.62
74416;SHT31;62850;42.428;25.618;2024-01-30T06:49:13;1.94;61.73
74416;SHT31;62850;42.428;25.618;2024-01-30T06:51:39;1.91;61.92
74416;SHT31;62850;42.428;25.618;2024-01-30T06:54:04;1.98;62.01
74416;SHT31;62850;42.428;25.618;2024-01-30T06:56:30;1.90;62.58
74416;SHT31;62850;42.428;25.618;2024-01-30T06:58:55;1.90;62.09
74416;SHT31;62850;42.428;25.618;2024-01-30T07:01:27;1.88;62.33
74416;SHT31;62850;42.428;25.618;2024-01-30T07:03:53;1.90;62.34
74416;SHT31;62850;42.428;25.618;2024-01-30T07:06:18;1.94;61.70
74416;SHT31;62850;42.428;25.618;2024-01-30T07:08:45;1.98;61.30
74416;SHT31;62850;42.428;25.618;2024-01-30T07:11:10;2.04;61.15
74416;SHT31;62850;42.428;25.618;2024-01-30T07:13:37;2.03;61.10
74416;SHT31;62850;42.428;25.618;2024-01-30T07:16:03;2.05;60.83
74416;SHT31;62850;42.428;25.618;2024-01-30T07:18:30;2.10;60.78
74416;SHT31;62850;42.428;25.618;2024-01-30T07:20:55;2.03;60.84
74416;SHT31;62850;42.428;25.618;2024-01-30T07:23:20;2.05;60.60
74416;SHT31;62850;42.428;25.618;2024-01-30T07:25:46;2.11;60.28
74416;SHT31;62850;42.428;25.618;2024-01-30T07:28:15;2.15;60.12
74416;SHT31;62850;42.428;25.618;2024-01-30T07:30:43;2.20;59.79
74416;SHT31;62850;42.428;25.618;2024-01-30T07:33:09;2.22;59.52
74416;SHT31;62850;42.428;25.618;2024-01-30T07:35:35;2.24;59.14
74416;SHT31;62850;42.428;25.618;2024-01-30T07:38:00;2.22;58.77
74416;SHT31;62850;42.428;25.618;2024-01-30T07:40:26;2.32;58.47
74416;SHT31;62850;42.428;25.618;2024-01-30T07:42:53;2.31;58.47
74416;SHT31;62850;42.428;25.618;2024-01-30T07:45:19;2.36;58.81
74416;SHT31;62850;42.428;25.618;2024-01-30T07:47:48;2.36;58.53
74416;SHT31;62850;42.428;25.618;2024-01-30T07:50:14;2.42;58.38
74416;SHT31;62850;42.428;25.618;2024-01-30T07:52:39;2.42;58.22
74416;SHT31;62850;42.428;25.618;2024-01-30T07:55:05;2.42;58.40
74416;SHT31;62850;42.428;25.618;2024-01-30T07:57:33;2.50;58.49
74416;SHT31;62850;42.428;25.618;2024-01-30T07:59:59;2.49;58.38
74416;SHT31;62850;42.428;25.618;2024-01-30T08:02:24;2.53;57.79
74416;SHT31;62850;42.428;25.618;2024-01-30T08:04:50;2.46;57.63
74416;SHT31;62850;42.428;25.618;2024-01-30T08:07:15;2.50;57.74
74416;SHT31;62850;42.428;25.618;2024-01-30T08:09:43;2.46;57.72
74416;SHT31;62850;42.428;25.618;2024-01-30T08:12:08;2.45;57.42
74416;SHT31;62850;42.428;25.618;2024-01-30T08:14:33;2.42;57.38
74416;SHT31;62850;42.428;25.618;2024-01-30T08:16:59;2.46;56.91
74416;SHT31;62850;42.428;25.618;2024-01-30T08:19:24;2.57;57.08
74416;SHT31;62850;42.428;25.618;2024-01-30T08:21:50;2.60;56.32
74416;SHT31;62850;42.428;25.618;2024-01-30T08:24:15;2.57;56.15
74416;SHT31;62850;42.428;25.618;2024-01-30T08:26:41;2.63;56.03
74416;SHT31;62850;42.428;25.618;2024-01-30T08:29:06;2.71;55.76
74416;SHT31;62850;42.428;25.618;2024-01-30T08:31:32;2.62;55.53
74416;SHT31;62850;42.428;25.618;2024-01-30T08:33:57;2.65;55.48
74416;SHT31;62850;42.428;25.618;2024-01-30T08:36:22;2.66;55.43
74416;SHT31;62850;42.428;25.618;2024-01-30T08:38:48;2.62;55.31
74416;SHT31;62850;42.428;25.618;2024-01-30T08:41:14;2.76;55.08
74416;SHT31;62850;42.428;25.618;2024-01-30T08:43:39;2.75;55.18
74416;SHT31;62850;42.428;25.618;2024-01-30T08:46:05;2.82;55.35
74416;SHT31;62850;42.428;25.618;2024-01-30T08:48:30;2.65;55.28
74416;SHT31;62850;42.428;25.618;2024-01-30T08:50:55;2.60;55.52
74416;SHT31;62850;42.428;25.618;2024-01-30T08:53:21;2.73;55.70
74416;SHT31;62850;42.428;25.618;2024-01-30T08:55:47;2.80;55.51
74416;SHT31;62850;42.428;25.618;2024-01-30T08:58:12;2.89;55.31
74416;SHT31;62850;42.428;25.618;2024-01-30T09:00:38;2.89;55.18
74416;SHT31;62850;42.428;25.618;2024-01-30T09:03:04;2.99;55.11
74416;SHT31;62850;42.428;25.618;2024-01-30T09:05:29;2.90;55.36
74416;SHT31;62850;42.428;25.618;2024-01-30T09:07:55;2.76;55.37
74416;SHT31;62850;42.428;25.618;2024-01-30T09:10:20;2.76;55.61
74416;SHT31;62850;42.428;25.618;2024-01-30T09:12:46;2.77;55.75
74416;SHT31;62850;42.428;25.618;2024-01-30T09:15:12;2.76;55.74
74416;SHT31;62850;42.428;25.618;2024-01-30T09:17:37;2.79;55.83
74416;SHT31;62850;42.428;25.618;2024-01-30T09:20:03;2.77;55.65
74416;SHT31;62850;42.428;25.618;2024-01-30T09:22:28;2.77;56.08
74416;SHT31;62850;42.428;25.618;2024-01-30T09:24:54;2.87;55.67
74416;SHT31;62850;42.428;25.618;2024-01-30T09:27:19;2.82;55.71
74416;SHT31;62850;42.428;25.618;2024-01-30T09:29:45;2.86;56.23
74416;SHT31;62850;42.428;25.618;2024-01-30T09:32:10;2.82;55.82
74416;SHT31;62850;42.428;25.618;2024-01-30T09:34:36;2.87;55.83
74416;SHT31;62850;42.428;25.618;2024-01-30T09:37:01;2.80;56.16
74416;SHT31;62850;42.428;25.618;2024-01-30T09:39:27;2.79;56.13
74416;SHT31;62850;42.428;25.618;2024-01-30T09:42:09;2.84;56.34
74416;SHT31;62850;42.428;25.618;2024-01-30T09:44:37;2.84;56.41
74416;SHT31;62850;42.428;25.618;2024-01-30T09:47:03;2.71;56.71
74416;SHT31;62850;42.428;25.618;2024-01-30T09:49:34;2.69;57.10
74416;SHT31;62850;42.428;25.618;2024-01-30T09:52:02;2.63;57.29
74416;SHT31;62850;42.428;25.618;2024-01-30T09:54:31;2.57;57.54
74416;SHT31;62850;42.428;25.618;2024-01-30T09:56:58;2.59;57.71
74416;SHT31;62850;42.428;25.618;2024-01-30T09:59:24;2.44;57.95
74416;SHT31;62850;42.428;25.618;2024-01-30T10:01:50;2.45;58.08
74416;SHT31;62850;42.428;25.618;2024-01-30T10:04:16;2.48;58.24
74416;SHT31;62850;42.428;25.618;2024-01-30T10:06:41;2.48;58.19
74416;SHT31;62850;42.428;25.618;2024-01-30T10:09:07;2.65;58.13
74416;SHT31;62850;42.428;25.618;2024-01-30T10:11:33;2.50;58.24
74416;SHT31;62850;42.428;25.618;2024-01-30T10:14:00;2.49;58.12
74416;SHT31;62850;42.428;25.618;2024-01-30T10:16:25;2.45;58.54
74416;SHT31;62850;42.428;25.618;2024-01-30T10:18:51;2.45;58.73
74416;SHT31;62850;42.428;25.618;2024-01-30T10:21:16;2.48;58.59
74416;SHT31;62850;42.428;25.618;2024-01-30T10:23:43;2.49;58.54
74416;SHT31;62850;42.428;25.618;2024-01-30T10:26:09;2.50;58.23
74416;SHT31;62850;42.428;25.618;2024-01-30T10:28:35;2.53;58.32
74416;SHT31;62850;42.428;25.618;2024-01-30T10:31:01;2.71;58.05
74416;SHT31;62850;42.428;25.618;2024-01-30T10:33:27;2.72;58.14
74416;SHT31;62850;42.428;25.618;2024-01-30T10:35:56;2.79;57.84
74416;SHT31;62850;42.428;25.618;2024-01-30T10:38:31;2.90;57.51
74416;SHT31;62850;42.428;25.618;2024-01-30T10:40:57;2.84;57.37
74416;SHT31;62850;42.428;25.618;2024-01-30T10:43:26;2.86;57.45
74416;SHT31;62850;42.428;25.618;2024-01-30T10:45:56;2.94;57.33
74416;SHT31;62850;42.428;25.618;2024-01-30T10:48:26;2.93;57.16
74416;SHT31;62850;42.428;25.618;2024-01-30T10:50:55;2.99;56.96
74416;SHT31;62850;42.428;25.618;2024-01-30T10:53:22;3.03;56.68
74416;SHT31;62850;42.428;25.618;2024-01-30T10:55:51;2.99;56.66
74416;SHT31;62850;42.428;25.618;2024-01-30T10:58:17;3.08;56.73
74416;SHT31;62850;42.428;25.618;2024-01-30T11:00:42;3.05;56.68
74416;SHT31;62850;42.428;25.618;2024-01-30T11:03:08;3.01;56.86
74416;SHT31;62850;42.428;25.618;2024-01-30T11:05:34;3.10;56.49
74416;SHT31;62850;42.428;25.618;2024-01-30T11:08:13;3.17;56.13
74416;SHT31;62850;42.428;25.618;2024-01-30T11:10:47;3.15;56.23
74416;SHT31;62850;42.428;25.618;2024-01-30T11:13:13;3.18;55.91
74416;SHT31;62850;42.428;25.618;2024-01-30T11:15:40;3.28;55.89
74416;SHT31;62850;42.428;25.618;2024-01-30T11:18:05;3.38;55.94
74416;SHT31;62850;42.428;25.618;2024-01-30T11:20:32;3.62;55.27
74416;SHT31;62850;42.428;25.618;2024-01-30T11:22:58;3.75;54.75
74416;SHT31;62850;42.428;25.618;2024-01-30T11:25:25;3.90;54.55
74416;SHT31;62850;42.428;25.618;2024-01-30T11:27:52;3.99;54.09
74416;SHT31;62850;42.428;25.618;2024-01-30T11:30:28;3.97;53.81
74416;SHT31;62850;42.428;25.618;2024-01-30T11:33:13;3.94;53.91
74416;SHT31;62850;42.428;25.618;2024-01-30T11:35:40;4.02;53.71
74416;SHT31;62850;42.428;25.618;2024-01-30T11:38:08;4.10;53.61
74416;SHT31;62850;42.428;25.618;2024-01-30T11:40:34;4.09;53.52
74416;SHT31;62850;42.428;25.618;2024-01-30T11:43:02;4.13;53.38
74416;SHT31;62850;42.428;25.618;2024-01-30T11:45:28;4.25;53.11
74416;SHT31;62850;42.428;25.618;2024-01-30T11:47:54;3.94;53.42
74416;SHT31;62850;42.428;25.618;2024-01-30T11:50:20;4.04;53.48
74416;SHT31;62850;42.428;25.618;2024-01-30T11:52:46;3.85;53.63
74416;SHT31;62850;42.428;25.618;2024-01-30T11:55:12;3.59;53.83
74416;SHT31;62850;42.428;25.618;2024-01-30T11:57:38;3.56;54.22
74416;SHT31;62850;42.428;25.618;2024-01-30T12:00:04;3.55;54.47
74416;SHT31;62850;42.428;25.618;2024-01-30T12:02:36;3.48;54.75
74416;SHT31;62850;42.428;25.618;2024-01-30T12:05:08;3.52;55.05
74416;SHT31;62850;42.428;25.618;2024-01-30T12:07:37;3.48;55.08
74416;SHT31;62850;42.428;25.618;2024-01-30T12:10:02;3.54;55.17
74416;SHT31;62850;42.428;25.618;2024-01-30T12:12:29;3.48;55.21
74416;SHT31;62850;42.428;25.618;2024-01-30T12:14:55;3.39;55.57
74416;SHT31;62850;42.428;25.618;2024-01-30T12:17:29;3.35;55.28
74416;SHT31;62850;42.428;25.618;2024-01-30T12:20:20;3.35;55.14
74416;SHT31;62850;42.428;25.618;2024-01-30T12:22:48;3.32;55.38
74416;SHT31;62850;42.428;25.618;2024-01-30T12:25:14;3.30;54.68
74416;SHT31;62850;42.428;25.618;2024-01-30T12:27:42;3.23;55.17
74416;SHT31;62850;42.428;25.618;2024-01-30T12:30:12;3.27;54.94
74416;SHT31;62850;42.428;25.618;2024-01-30T12:32:46;3.42;54.96
74416;SHT31;62850;42.428;25.618;2024-01-30T12:35:13;3.55;54.18
74416;SHT31;62850;42.428;25.618;2024-01-30T12:37:39;3.42;54.64
74416;SHT31;62850;42.428;25.618;2024-01-30T12:40:06;3.34;54.56
74416;SHT31;62850;42.428;25.618;2024-01-30T12:42:32;3.28;54.96
74416;SHT31;62850;42.428;25.618;2024-01-30T12:44:58;3.28;54.47
74416;SHT31;62850;42.428;25.618;2024-01-30T12:47:24;3.24;54.71
74416;SHT31;62850;42.428;25.618;2024-01-30T12:49:50;3.24;54.84
74416;SHT31;62850;42.428;25.618;2024-01-30T12:52:19;3.24;54.98
74416;SHT31;62850;42.428;25.618;2024-01-30T12:54:45;3.24;54.82
74416;SHT31;62850;42.428;25.618;2024-01-30T12:57:11;3.21;54.44
74416;SHT31;62850;42.428;25.618;2024-01-30T12:59:37;3.30;54.05
74416;SHT31;62850;42.428;25.618;2024-01-30T13:02:02;3.30;54.34
74416;SHT31;62850;42.428;25.618;2024-01-30T13:04:29;3.28;54.49
74416;SHT31;62850;42.428;25.618;2024-01-30T13:06:54;3.20;54.37
74416;SHT31;62850;42.428;25.618;2024-01-30T13:09:20;3.17;54.03
74416;SHT31;62850;42.428;25.618;2024-01-30T13:11:45;3.10;54.28
74416;SHT31;62850;42.428;25.618;2024-01-30T13:14:11;3.08;54.70
74416;SHT31;62850;42.428;25.618;2024-01-30T13:16:37;3.14;54.40
74416;SHT31;62850;42.428;25.618;2024-01-30T13:19:02;3.05;54.45
74416;SHT31;62850;42.428;25.618;2024-01-30T13:21:28;3.08;54.48
74416;SHT31;62850;42.428;25.618;2024-01-30T13:23:54;3.07;54.77
74416;SHT31;62850;42.428;25.618;2024-01-30T13:26:22;3.07;54.85
74416;SHT31;62850;42.428;25.618;2024-01-30T13:28:48;3.04;54.49
74416;SHT31;62850;42.428;25.618;2024-01-30T13:31:16;3.04;54.26
74416;SHT31;62850;42.428;25.618;2024-01-30T13:33:42;3.03;54.76
74416;SHT31;62850;42.428;25.618;2024-01-30T13:36:10;3.13;54.47
74416;SHT31;62850;42.428;25.618;2024-01-30T13:38:35;3.10;54.45
74416;SHT31;62850;42.428;25.618;2024-01-30T13:41:01;3.00;54.75
74416;SHT31;62850;42.428;25.618;2024-01-30T13:43:26;2.96;54.94
74416;SHT31;62850;42.428;25.618;2024-01-30T13:45:52;2.83;55.33
74416;SHT31;62850;42.428;25.618;2024-01-30T13:48:19;2.77;55.34
74416;SHT31;62850;42.428;25.618;2024-01-30T13:50:44;2.83;55.14
74416;SHT31;62850;42.428;25.618;2024-01-30T13:53:11;2.75;55.42
74416;SHT31;62850;42.428;25.618;2024-01-30T13:55:36;2.69;55.13
74416;SHT31;62850;42.428;25.618;2024-01-30T13:58:02;2.73;55.48
74416;SHT31;62850;42.428;25.618;2024-01-30T14:00:27;2.80;54.87
74416;SHT31;62850;42.428;25.618;2024-01-30T14:02:53;2.73;54.75
74416;SHT31;62850;42.428;25.618;2024-01-30T14:05:23;2.76;54.79
74416;SHT31;62850;42.428;25.618;2024-01-30T14:07:49;2.79;54.95
74416;SHT31;62850;42.428;25.618;2024-01-30T14:10:15;2.83;54.75
74416;SHT31;62850;42.428;25.618;2024-01-30T14:12:42;2.75;54.86
74416;SHT31;62850;42.428;25.618;2024-01-30T14:15:08;2.71;54.91
74416;SHT31;62850;42.428;25.618;2024-01-30T14:17:35;2.62;55.36
74416;SHT31;62850;42.428;25.618;2024-01-30T14:20:02;2.59;55.60
74416;SHT31;62850;42.428;25.618;2024-01-30T14:22:28;2.62;55.68
74416;SHT31;62850;42.428;25.618;2024-01-30T14:24:54;2.73;55.42
74416;SHT31;62850;42.428;25.618;2024-01-30T14:27:19;2.75;54.74
74416;SHT31;62850;42.428;25.618;2024-01-30T14:29:44;2.76;54.84
74416;SHT31;62850;42.428;25.618;2024-01-30T14:32:10;2.75;55.07
74416;SHT31;62850;42.428;25.618;2024-01-30T14:34:35;2.67;54.83
74416;SHT31;62850;42.428;25.618;2024-01-30T14:37:01;2.66;55.16
74416;SHT31;62850;42.428;25.618;2024-01-30T14:39:26;2.60;55.46
74416;SHT31;62850;42.428;25.618;2024-01-30T14:41:52;2.62;55.37
74416;SHT31;62850;42.428;25.618;2024-01-30T14:44:17;2.62;55.36
74416;SHT31;62850;42.428;25.618;2024-01-30T14:46:43;2.63;55.28
74416;SHT31;62850;42.428;25.618;2024-01-30T14:49:08;2.62;55.47
74416;SHT31;62850;42.428;25.618;2024-01-30T14:51:35;2.60;55.55
74416;SHT31;62850;42.428;25.618;2024-01-30T14:54:00;2.57;55.71
74416;SHT31;62850;42.428;25.618;2024-01-30T14:56:27;2.59;55.94
74416;SHT31;62850;42.428;25.618;2024-01-30T14:58:52;2.57;55.85
74416;SHT31;62850;42.428;25.618;2024-01-30T15:01:18;2.59;55.85
74416;SHT31;62850;42.428;25.618;2024-01-30T15:03:44;2.50;56.18
74416;SHT31;62850;42.428;25.618;2024-01-30T15:06:14;2.48;56.53
74416;SHT31;62850;42.428;25.618;2024-01-30T15:08:40;2.45;56.17
74416;SHT31;62850;42.428;25.618;2024-01-30T15:11:08;2.45;56.27
74416;SHT31;62850;42.428;25.618;2024-01-30T15:13:35;2.49;56.42
74416;SHT31;62850;42.428;25.618;2024-01-30T15:16:02;2.52;56.20
74416;SHT31;62850;42.428;25.618;2024-01-30T15:18:30;2.45;56.54
74416;SHT31;62850;42.428;25.618;2024-01-30T15:20:58;2.41;56.51
74416;SHT31;62850;42.428;25.618;2024-01-30T15:23:30;2.48;56.38